Terminal Aerodrome Forecast
Issued by NWS

Home | Current Version | Previous Version | Text Only | Print | Product List | Glossary On
Versions: 1 2 3 4 5 6 7 8 9 10 11 12 13 14 15 16 17 18
121
FTUS44 KCRP 080655 AAA
TAFLRD
TAF AMD
KLRD 080655Z 0807/0906 02006KT 6SM BR VCSH OVC008
      TEMPO 0807/0811 3SM -RA OVC004
     FM081100 02018G25KT P6SM OVC015
     FM082100 36010KT P6SM OVC020=

USA.gov is the U.S. government's official web portal to all federal, state and local government web resources and services.